Aviation Digital Data Service (ADDS)

Output produced by METARs form (0111 UTC 27 July 2016)
found at http://www.aviationweather.gov/adds/metars/
 
KBFD 270053Z AUTO 32003KT 10SM CLR 20/14 A3005 RMK AO2 SLP161 T02000139
KBFD 262353Z AUTO 30005KT 10SM CLR 23/13 A3005 RMK AO2 SLP159 T02330133 10272 20233 53003
KBFD 262253Z AUTO 30009KT 10SM CLR 25/13 A3004 RMK AO2 SLP156 T02500128
KBFD 262153Z AUTO 30009KT 10SM CLR 26/13 A3004 RMK AO2 SLP155 T02610128
KBFD 262053Z AUTO 26007KT 10SM CLR 26/14 A3004 RMK AO2 SLP156 T02610139 56010
KBFD 261953Z AUTO 34007KT 10SM CLR 27/15 A3005 RMK AO2 SLP158 T02670150
KBFD 261853Z AUTO 28009G14KT 10SM FEW040 26/15 A3006 RMK AO2 SLP164 T02610150
KBFD 261753Z AUTO 30006KT 10SM CLR 26/15 A3007 RMK AO2 SLP165 T02560150 10256 20194 58001
KBFD 261653Z AUTO 29009G14KT 10SM CLR 24/14 A3007 RMK AO2 SLP166 T02440139
KBFD 261553Z AUTO 32010KT 10SM CLR 24/14 A3008 RMK AO2 SLP168 T02390139
KBFD 261453Z AUTO 32008KT 10SM CLR 23/14 A3007 RMK AO2 SLP168 T02330139 52004
KBFD 261353Z AUTO 28007KT 10SM CLR 22/14 A3007 RMK AO2 SLP166 T02220144
KBFD 261253Z AUTO 29007KT 10SM CLR 21/15 A3007 RMK AO2 SLP165 T02110150
KBFD 261153Z AUTO 33004KT 10SM CLR 19/16 A3006 RMK AO2 SLP163 70043 T01940161 10200 20150 53009
KBFD 261053Z AUTO 32005KT 10SM CLR 18/17 A3005 RMK AO2 SLP160 T01830167
KBFD 261019Z AUTO 33005KT 6SM BR FEW007 18/17 A3005 RMK AO2 T01830172
KBFD 261005Z AUTO 32004KT 4SM BR BKN008 18/18 A3004 RMK AO2 CIG 005V013 T01830178
KBFD 260953Z AUTO 32004KT 6SM BR BKN010 19/18 A3003 RMK AO2 CIG 007V013 SLP153 T01890178
KBFD 260940Z AUTO 30005KT 7SM SCT010 19/18 A3003 RMK AO2 T01890178
KBFD 260933Z AUTO 30005KT 7SM BKN010 19/18 A3003 RMK AO2 CIG 007V013 T01890178
KBFD 260911Z AUTO 32004KT 6SM BR BKN006 18/17 A3002 RMK AO2 T01780167
KBFD 260853Z AUTO 00000KT 4SM BR FEW004 SCT046 17/16 A3002 RMK AO2 SLP151 T01670161 53003
KBFD 260846Z AUTO 34003KT 2SM BR FEW004 SCT046 16/14 A3002 RMK AO2 VIS 1V5 T01560144
KBFD 260832Z AUTO 00000KT 3/4SM BR SCT003 BKN046 15/14 A3002 RMK AO2 T01500144
KBFD 260822Z AUTO 00000KT 2SM BR SCT003 BKN046 16/15 A3001 RMK AO2 T01610150
KBFD 260755Z AUTO 13003KT 3/4SM BR FEW004 BKN046 16/15 A3001 RMK AO2 T01560150
KBFD 260753Z AUTO 12003KT 1SM BR BKN046 16/15 A3001 RMK AO2 SLP150 T01560150
KBFD 260748Z AUTO 12003KT 1 1/2SM BR SCT046 16/15 A3001 RMK AO2
KBFD 260739Z AUTO 11003KT 3SM BR SCT044 16/15 A3001 RMK AO2 T01560150
KBFD 260725Z AUTO 13004KT 1 3/4SM BR CLR 16/15 A3001 RMK AO2 T01560150
KBFD 260653Z AUTO 00000KT 5SM BR CLR 17/16 A3001 RMK AO2 SLP150 T01670156
KBFD 260553Z AUTO 00000KT 10SM FEW030 SCT038 20/18 A3002 RMK AO2 SLP148 T02000178 10244 20194 53002
KBFD 260453Z AUTO 28004KT 10SM FEW036 21/18 A3001 RMK AO2 SLP141 T02060178 402940194
KBFD 260353Z AUTO 29004KT 10SM CLR 21/18 A3001 RMK AO2 SLP141 T02060183
KBFD 260253Z AUTO 00000KT 10SM CLR 19/18 A3001 RMK AO2 SLP143 T01940178 50007
KBFD 260153Z AUTO 25003KT 10SM CLR 21/19 A3002 RMK AO2 SLP145 T02110189
KBFD 260053Z AUTO 25003KT 10SM CLR 23/19 A3000 RMK AO2 SLP139 T02280189
KBFD 252353Z AUTO 29006KT 10SM FEW029 24/19 A2999 RMK AO2 SLP135 60040 T02440194 10256 20200 53008
KBFD 252253Z AUTO 28008KT 10SM CLR 26/20 A2996 RMK AO2 SLP127 T02560200
KBFD 252200Z AUTO 29008KT 10SM SCT022 SCT036 BKN043 26/21 A2996 RMK AO2 T02560206
KBFD 252153Z AUTO 27007KT 10SM BKN022 BKN034 BKN042 26/21 A2996 RMK AO2 SLP127 T02560206
KBFD 252131Z AUTO 28009KT 10SM BKN021 BKN028 26/21 A2996 RMK AO2 T02560206
KBFD 252053Z AUTO 28008KT 10SM CLR 26/21 A2996 RMK AO2 SLP127 60040 T02560206 58003
KBFD 251953Z AUTO 21004KT 10SM CLR 22/20 A2997 RMK AO2 LTG DSNT SE AND S RAE15 TSE1858 SLP133 P0000 T02220200
KBFD 251911Z AUTO 33003KT 10SM -RA FEW043 SCT065 BKN110 21/18 A2997 RMK AO2 LTG DSNT ALQDS TSE1858 P0000 T02060183
KBFD 251904Z AUTO 33003KT 7SM VCTS -RA SCT044 BKN085 OVC110 20/18 A2997 RMK AO2 LTG DSNT ALQDS TSE1858 P0000 T02000183
KBFD 251853Z AUTO 34009KT 3SM TSRA BR BKN044 BKN070 OVC100 20/18 A2999 RMK AO2 PK WND 32034/1825 LTG DSNT ALQDS SLP141 P0040 T02000183
KBFD 251844Z AUTO 34013G21KT 1 1/4SM +TSRA BR BKN038 BKN047 OVC070 20/18 A2999 RMK AO2 PK WND 32034/1825 LTG DSNT ALQDS P0037 T02000183
KBFD 251836Z AUTO 33014G31KT 2 1/2SM TSRA BR FEW010 BKN038 OVC047 21/19 A3002 RMK AO2 PK WND 32034/1825 VIS 1V5 LTG DSNT ALQDS P0029 T02060189
KBFD 251827Z AUTO 33026G34KT 3SM TSRA BR SCT011 BKN035 OVC047 21/19 A3001 RMK AO2 PK WND 32034/1825 LTG DSNT ALQDS P0022 T02110189
KBFD 251821Z AUTO 36008KT 1 1/2SM TSRA BR FEW008 BKN032 OVC041 21/19 A3001 RMK AO2 LTG DSNT ALQDS P0021 T02110194
KBFD 251813Z AUTO 32008KT 3/4SM +TSRA BR FEW008 BKN019 OVC042 21/19 A3001 RMK AO2 LTG DSNT ALQDS PRESRR P0018 T02110194
KBFD 251808Z AUTO 28008KT 1 1/2SM +TSRA BR FEW008 SCT019 OVC035 22/19 A3000 RMK AO2 LTG DSNT ALQDS P0010 T02170194
KBFD 251800Z AUTO 31015G20KT 2SM TSRA BR FEW024 BKN033 OVC045 22/19 A2997 RMK AO2 LTG DSNT ALQDS P0002 T02170194
KBFD 251753Z AUTO 31015G20KT 3SM -TSRA FEW024 BKN033 OVC044 22/18 A2997 RMK AO2 LTG DSNT ALQDS RAB49 TSB02 SLP133 P0003 60003 T02220183 10294 20217 55004
KBFD 251708Z AUTO 25010G20KT 10SM TS FEW032 FEW040 29/21 A2995 RMK AO2 LTG DSNT W-NE TSB02 T02890206
KBFD 251653Z AUTO 23008G14KT 190V260 10SM VCTS CLR 29/21 A2996 RMK AO2 LTG DSNT W-NE SLP124 T02890211
KBFD 251651Z AUTO 23010G14KT 10SM VCTS CLR 29/21 A2996 RMK AO2 LTG DSNT W-NE
KBFD 251553Z AUTO 27007KT 9SM SCT025 BKN033 28/22 A2998 RMK AO2 SLP134 T02780217
KBFD 251529Z AUTO VRB06KT 9SM SCT021 27/21 A2998 RMK AO2 LTG DSNT NW T02720211
KBFD 251453Z AUTO 28009KT 8SM BKN016 OVC031 27/22 A3001 RMK AO2 SLP142 T02670217 55003
KBFD 251425Z AUTO 28006KT 9SM BKN016 BKN022 26/22 A3001 RMK AO2 T02610217
KBFD 251353Z AUTO 26008G14KT 9SM CLR 26/21 A3000 RMK AO2 LTG DSNT NE SLP141 T02560211